Terminal Aerodrome Forecast
Issued by NWS Charleston, WV

Current Version | Previous Version | Text Only | Print | Product List | Glossary Off
Versions: 1 2 3 4 5 6 7 8 9 10 11 12 13 14 15 16 17 18 19 20 21

000
FTUS41 KRLX 151725
TAFBKW
TAF
KBKW 151725Z 1518/1618 28007KT P6SM OVC018
     FM152000 28008KT P6SM BKN020
     FM152300 28008KT P6SM SCT030
     FM160200 29008KT P6SM BKN030
     FM160800 28008KT P6SM SCT025
     FM161600 26008KT P6SM FEW250=

USA.gov is the U.S. government's official web portal to all federal, state and local government web resources and services.